createdAt,value
2022-08-04T00:02:19.321Z,100522.28
2022-08-04T00:05:05.985Z,100514.06
2022-08-04T00:07:43.883Z,100512.00
2022-08-04T00:10:16.269Z,100509.84
2022-08-04T00:12:48.847Z,100511.44
2022-08-04T00:15:17.166Z,100513.78
2022-08-04T00:17:58.104Z,100517.00
2022-08-04T00:20:29.187Z,100512.31
2022-08-04T00:22:57.170Z,100505.78
2022-08-04T00:25:24.931Z,100514.28
2022-08-04T00:27:51.687Z,100510.03
2022-08-04T00:30:18.252Z,100514.66
2022-08-04T00:32:45.409Z,100512.63
2022-08-04T00:35:15.667Z,100504.59
2022-08-04T00:37:45.333Z,100504.97
2022-08-04T00:40:49.450Z,100510.22
2022-08-04T00:43:28.293Z,100507.19
2022-08-04T00:46:22.221Z,100506.00
2022-08-04T00:49:13.879Z,100504.44
2022-08-04T00:51:40.379Z,100504.59
2022-08-04T00:54:07.349Z,100510.50
2022-08-04T00:57:00.019Z,100504.38
2022-08-04T01:00:09.827Z,100510.50
2022-08-04T01:02:52.493Z,100500.44
2022-08-04T01:05:38.051Z,100501.09
2022-08-04T01:08:41.761Z,100497.19
2022-08-04T01:11:24.310Z,100498.78
2022-08-04T01:14:20.269Z,100496.94
2022-08-04T01:16:57.891Z,100496.47
2022-08-04T01:19:45.548Z,100491.25
2022-08-04T01:23:03.683Z,100496.09
2022-08-04T01:26:01.197Z,100500.16
2022-08-04T01:28:43.530Z,100489.44
2022-08-04T01:31:30.986Z,100495.81
2022-08-04T01:34:04.812Z,100487.09
2022-08-04T01:36:38.063Z,100492.09
2022-08-04T01:39:24.781Z,100479.84
2022-08-04T01:41:58.227Z,100476.88
2022-08-04T01:44:28.590Z,100471.50
2022-08-04T01:46:55.291Z,100477.94
2022-08-04T01:49:25.263Z,100478.56
2022-08-04T01:51:53.002Z,100481.16
2022-08-04T01:54:19.923Z,100473.22
2022-08-04T01:56:50.873Z,100480.81
2022-08-04T01:59:21.494Z,100473.81
2022-08-04T02:01:48.574Z,100468.78
2022-08-04T02:04:18.384Z,100469.41
2022-08-04T02:06:59.658Z,100460.03
2022-08-04T02:09:56.380Z,100472.50
2022-08-04T02:13:05.193Z,100466.59
2022-08-04T02:16:06.695Z,100474.38
2022-08-04T02:18:57.652Z,100464.44
2022-08-04T02:21:26.850Z,100467.28
2022-08-04T02:24:15.068Z,100473.56
2022-08-04T02:26:46.413Z,100464.31
2022-08-04T02:29:40.846Z,100472.72
2022-08-04T02:32:15.684Z,100475.56
2022-08-04T02:35:06.459Z,100467.28
2022-08-04T02:37:33.841Z,100461.00
2022-08-04T02:40:03.730Z,100460.13
2022-08-04T02:42:31.793Z,100461.81
2022-08-04T02:45:00.946Z,100466.94
2022-08-04T02:48:29.227Z,100459.06
2022-08-04T02:50:28.791Z,100457.31
2022-08-04T02:53:00.335Z,100458.25
2022-08-04T02:55:28.961Z,100456.00
2022-08-04T02:57:58.037Z,100455.53
2022-08-04T03:00:25.667Z,100446.38
2022-08-04T03:03:27.107Z,100450.81
2022-08-04T03:06:25.466Z,100448.31
2022-08-04T03:09:07.150Z,100445.22
2022-08-04T03:12:03.198Z,100448.16
2022-08-04T03:14:58.423Z,100439.84
2022-08-04T03:17:33.787Z,100438.47
2022-08-04T03:20:34.270Z,100431.09
2022-08-04T03:23:29.366Z,100442.25
2022-08-04T03:26:33.070Z,100437.69
2022-08-04T03:29:38.435Z,100442.97
2022-08-04T03:32:27.242Z,100443.25
2022-08-04T03:35:08.418Z,100443.53
2022-08-04T03:37:57.297Z,100450.13
2022-08-04T03:40:54.122Z,100445.09
2022-08-04T03:43:57.582Z,100443.53
2022-08-04T03:46:25.975Z,100440.91
2022-08-04T03:49:09.199Z,100434.50
2022-08-04T03:52:25.476Z,100438.41
2022-08-04T03:55:11.187Z,100445.28
2022-08-04T03:57:57.196Z,100449.63
2022-08-04T04:00:52.719Z,100445.59
2022-08-04T04:03:47.860Z,100438.78
2022-08-04T04:06:52.904Z,100442.41
2022-08-04T04:09:54.817Z,100440.03
2022-08-04T04:12:46.929Z,100434.06
2022-08-04T04:15:50.056Z,100444.78
2022-08-04T04:18:27.886Z,100440.53
2022-08-04T04:21:26.480Z,100440.69
2022-08-04T04:24:16.494Z,100430.16
2022-08-04T04:26:54.907Z,100428.38
2022-08-04T04:29:50.358Z,100429.44
2022-08-04T04:32:37.252Z,100427.44
2022-08-04T04:35:31.757Z,100427.09
2022-08-04T04:38:25.951Z,100428.31
2022-08-04T04:41:20.394Z,100424.56
2022-08-04T04:44:14.603Z,100427.50
2022-08-04T04:47:10.011Z,100431.53
2022-08-04T04:49:51.306Z,100426.53
2022-08-04T04:52:38.075Z,100436.28
2022-08-04T04:55:16.055Z,100433.22
2022-08-04T04:57:54.555Z,100436.56
2022-08-04T05:00:26.194Z,100435.00
2022-08-04T05:03:17.328Z,100434.88
2022-08-04T05:06:16.439Z,100429.59
2022-08-04T05:08:54.446Z,100427.22
2022-08-04T05:11:57.978Z,100429.75
2022-08-04T05:14:41.106Z,100433.81
2022-08-04T05:17:27.598Z,100423.19
2022-08-04T05:20:08.291Z,100421.41
2022-08-04T05:22:47.773Z,100422.19
2022-08-04T05:25:21.125Z,100426.88
2022-08-04T05:27:58.961Z,100428.03
2022-08-04T05:30:28.685Z,100429.78
2022-08-04T05:33:18.939Z,100433.59
2022-08-04T05:36:17.731Z,100429.38
2022-08-04T05:38:42.395Z,100430.50
2022-08-04T05:41:10.795Z,100423.34
2022-08-04T05:43:40.456Z,100432.72
2022-08-04T05:46:09.215Z,100427.47
2022-08-04T05:48:37.305Z,100425.28
2022-08-04T05:51:05.273Z,100415.03
2022-08-04T05:53:33.033Z,100422.31
2022-08-04T05:56:02.189Z,100412.09
2022-08-04T05:58:30.820Z,100413.63
2022-08-04T06:01:00.687Z,100418.56
2022-08-04T06:03:30.777Z,100427.41
2022-08-04T06:05:58.905Z,100426.59
2022-08-04T06:08:25.703Z,100421.81
2022-08-04T06:10:55.500Z,100418.25
2022-08-04T06:13:47.463Z,100421.91
2022-08-04T06:16:28.517Z,100420.53
2022-08-04T06:20:00.270Z,100419.69
2022-08-04T06:21:50.288Z,100418.91
2022-08-04T06:24:23.564Z,100414.66
2022-08-04T06:26:51.646Z,100413.88
2022-08-04T06:29:33.702Z,100426.50
2022-08-04T06:32:30.161Z,100423.88
2022-08-04T06:34:55.572Z,100417.56
2022-08-04T06:37:41.806Z,100421.34
2022-08-04T06:40:30.847Z,100427.53
2022-08-04T06:43:02.753Z,100425.72
2022-08-04T06:45:30.017Z,100419.69
2022-08-04T06:47:58.239Z,100421.72
2022-08-04T06:51:32.266Z,100423.28
2022-08-04T06:53:12.231Z,100418.94
2022-08-04T06:55:40.466Z,100421.16
2022-08-04T06:58:08.413Z,100422.91
2022-08-04T07:00:38.681Z,100424.25
2022-08-04T07:03:05.601Z,100413.81
2022-08-04T07:05:32.312Z,100414.69
2022-08-04T07:07:59.331Z,100420.69
2022-08-04T07:10:30.528Z,100411.38
2022-08-04T07:12:57.939Z,100417.44
2022-08-04T07:15:25.695Z,100418.22
2022-08-04T07:17:53.393Z,100416.69
2022-08-04T07:20:33.977Z,100422.94
2022-08-04T07:23:04.476Z,100418.31
2022-08-04T07:26:00.614Z,100410.91
2022-08-04T07:28:20.994Z,100425.97
2022-08-04T07:30:49.555Z,100421.41
2022-08-04T07:33:18.203Z,100417.69
2022-08-04T07:36:09.390Z,100414.22
2022-08-04T07:38:33.739Z,100423.97
2022-08-04T07:41:35.267Z,100412.47
2022-08-04T07:43:54.686Z,100404.56
2022-08-04T07:46:21.640Z,100410.97
2022-08-04T07:48:48.564Z,100417.47
2022-08-04T07:51:16.843Z,100406.69
2022-08-04T07:53:53.381Z,100410.84
2022-08-04T07:56:22.969Z,100402.59
2022-08-04T07:58:50.353Z,100395.22
2022-08-04T08:01:18.962Z,100390.03
2022-08-04T08:03:46.603Z,100389.41
2022-08-04T08:06:31.156Z,100386.66
2022-08-04T08:09:12.091Z,100373.47
2022-08-04T08:12:36.284Z,100375.28
2022-08-04T08:14:35.549Z,100370.69
2022-08-04T08:17:03.240Z,100368.28
2022-08-04T08:19:34.549Z,100363.97
2022-08-04T08:22:02.340Z,100359.69
2022-08-04T08:24:35.903Z,100364.63
2022-08-04T08:27:06.769Z,100361.81
2022-08-04T08:29:35.376Z,100369.88
2022-08-04T08:32:08.142Z,100361.28
2022-08-04T08:34:36.021Z,100356.31
2022-08-04T08:37:05.378Z,100363.91
2022-08-04T08:39:40.517Z,100357.03
2022-08-04T08:42:16.799Z,100355.13
2022-08-04T08:45:17.934Z,100352.56
2022-08-04T08:48:06.093Z,100356.97
2022-08-04T08:50:52.542Z,100342.72
2022-08-04T08:53:51.098Z,100345.75
2022-08-04T08:56:17.554Z,100335.34
2022-08-04T08:59:03.198Z,100338.38
2022-08-04T09:01:59.559Z,100353.47
2022-08-04T09:04:53.952Z,100349.03
2022-08-04T09:07:49.018Z,100344.31
2022-08-04T09:10:48.874Z,100342.34
2022-08-04T09:13:36.787Z,100327.16
2022-08-04T09:16:16.265Z,100327.34
2022-08-04T09:19:37.531Z,100332.47
2022-08-04T09:22:10.705Z,100332.03
2022-08-04T09:24:54.073Z,100332.53
2022-08-04T09:27:28.845Z,100335.78
2022-08-04T09:30:05.375Z,100323.13
2022-08-04T09:32:38.004Z,100325.41
2022-08-04T09:35:22.394Z,100325.09
2022-08-04T09:38:02.131Z,100321.03
2022-08-04T09:40:53.808Z,100317.22
2022-08-04T09:44:42.100Z,100328.63
2022-08-04T09:46:29.145Z,100325.81
2022-08-04T09:49:04.996Z,100321.72
2022-08-04T09:51:57.191Z,100319.63
2022-08-04T09:54:52.786Z,100318.94
2022-08-04T09:57:38.954Z,100323.63
2022-08-04T10:00:09.182Z,100315.16
2022-08-04T10:02:51.363Z,100307.00
2022-08-04T10:05:27.616Z,100310.88
2022-08-04T10:08:16.586Z,100312.47
2022-08-04T10:11:12.386Z,100319.00
2022-08-04T10:13:56.574Z,100314.69
2022-08-04T10:16:58.530Z,100313.63
2022-08-04T10:19:32.401Z,100319.97
2022-08-04T10:22:28.715Z,100316.25
2022-08-04T10:26:05.707Z,100319.38
2022-08-04T10:28:24.405Z,100314.53
2022-08-04T10:30:55.937Z,100300.78
2022-08-04T10:33:30.550Z,100307.78
2022-08-04T10:36:04.831Z,100308.00
2022-08-04T10:38:37.513Z,100311.41
2022-08-04T10:41:12.301Z,100295.31
2022-08-04T10:43:58.917Z,100298.00
2022-08-04T10:46:37.446Z,100294.25
2022-08-04T10:49:09.716Z,100286.72
2022-08-04T10:51:58.466Z,100280.91
2022-08-04T10:54:48.001Z,100284.16
2022-08-04T10:57:21.130Z,100285.91
2022-08-04T11:00:05.182Z,100266.59
2022-08-04T11:02:39.989Z,100272.28
2022-08-04T11:05:25.792Z,100272.34
2022-08-04T11:07:59.597Z,100270.44
2022-08-04T11:10:32.284Z,100268.72
2022-08-04T11:13:04.833Z,100272.97
2022-08-04T11:15:40.198Z,100261.00
2022-08-04T11:18:16.178Z,100275.47
2022-08-04T11:20:52.970Z,100268.88
2022-08-04T11:23:26.524Z,100267.91
2022-08-04T11:26:00.739Z,100258.13
2022-08-04T11:29:03.270Z,100253.94
2022-08-04T11:31:39.835Z,100260.38
2022-08-04T11:34:20.717Z,100250.88
2022-08-04T11:37:00.359Z,100264.47
2022-08-04T11:39:36.287Z,100255.75
2022-08-04T11:42:27.100Z,100254.50
2022-08-04T11:45:06.302Z,100262.09
2022-08-04T11:47:41.593Z,100255.34
2022-08-04T11:50:21.043Z,100247.56
2022-08-04T11:52:48.907Z,100246.31
2022-08-04T11:55:17.901Z,100254.97
2022-08-04T11:57:44.978Z,100250.31
2022-08-04T12:00:14.823Z,100255.22
2022-08-04T12:02:59.083Z,100253.88
2022-08-04T12:05:41.522Z,100261.56
2022-08-04T12:08:36.367Z,100264.38
2022-08-04T12:11:21.412Z,100255.31
2022-08-04T12:14:17.223Z,100250.03
2022-08-04T12:17:04.446Z,100252.41
2022-08-04T12:20:04.658Z,100258.44
2022-08-04T12:22:40.802Z,100249.63
2022-08-04T12:25:11.854Z,100250.44
2022-08-04T12:27:43.831Z,100251.72
2022-08-04T12:30:58.211Z,100250.91
2022-08-04T12:33:10.671Z,100244.53
2022-08-04T12:36:10.317Z,100246.38
2022-08-04T12:38:33.429Z,100251.03
2022-08-04T12:41:04.986Z,100248.97
2022-08-04T12:43:47.149Z,100249.19
2022-08-04T12:46:23.561Z,100249.81
2022-08-04T12:48:51.238Z,100256.03
2022-08-04T12:51:30.933Z,100238.41
2022-08-04T12:54:07.234Z,100247.16
2022-08-04T12:56:34.685Z,100251.59
2022-08-04T12:59:13.014Z,100242.75
2022-08-04T13:02:07.883Z,100233.28
2022-08-04T13:04:34.748Z,100225.63
2022-08-04T13:07:12.798Z,100226.75
2022-08-04T13:09:41.155Z,100226.59
2022-08-04T13:12:32.417Z,100211.97
2022-08-04T13:15:18.506Z,100210.47
2022-08-04T13:18:03.938Z,100219.91
2022-08-04T13:20:39.164Z,100223.97
2022-08-04T13:23:11.715Z,100224.44
2022-08-04T13:26:43.390Z,100224.91
2022-08-04T13:28:34.362Z,100222.88
2022-08-04T13:31:05.464Z,100211.53
2022-08-04T13:33:35.355Z,100217.84
2022-08-04T13:36:02.747Z,100205.88
2022-08-04T13:38:31.249Z,100212.59
2022-08-04T13:41:02.871Z,100206.63
2022-08-04T13:44:15.495Z,100204.97
2022-08-04T13:46:28.028Z,100198.94
2022-08-04T13:49:31.247Z,100205.78
2022-08-04T13:51:58.013Z,100190.78
2022-08-04T13:54:46.876Z,100186.47
2022-08-04T13:57:27.759Z,100182.63
2022-08-04T13:59:59.976Z,100184.84
2022-08-04T14:02:41.528Z,100183.13
2022-08-04T14:05:27.011Z,100180.03
2022-08-04T14:08:06.583Z,100180.47
2022-08-04T14:10:34.717Z,100177.94
2022-08-04T14:13:04.243Z,100181.03
2022-08-04T14:16:01.206Z,100183.56
2022-08-04T14:18:32.228Z,100190.72
2022-08-04T14:21:11.285Z,100179.06
2022-08-04T14:23:54.008Z,100181.59
2022-08-04T14:26:31.579Z,100191.59
2022-08-04T14:29:28.313Z,100190.91
2022-08-04T14:32:05.529Z,100202.03
2022-08-04T14:34:39.314Z,100208.72
2022-08-04T14:37:16.267Z,100202.41
2022-08-04T14:40:08.964Z,100202.53
2022-08-04T14:42:55.401Z,100201.94
2022-08-04T14:45:37.011Z,100194.59
2022-08-04T14:48:11.653Z,100206.78
2022-08-04T14:50:43.861Z,100221.09
2022-08-04T14:53:30.778Z,100219.00
2022-08-04T14:56:01.066Z,100207.28
2022-08-04T14:58:38.839Z,100186.50
2022-08-04T15:01:12.360Z,100183.53
2022-08-04T15:03:52.081Z,100224.84
2022-08-04T15:06:23.222Z,100226.22
2022-08-04T15:08:51.718Z,100233.22
2022-08-04T15:11:23.660Z,100231.06
2022-08-04T15:13:55.652Z,100248.09
2022-08-04T15:16:24.346Z,100244.47
2022-08-04T15:18:54.878Z,100254.81
2022-08-04T15:21:28.098Z,100262.81
2022-08-04T15:23:59.017Z,100260.34
2022-08-04T15:26:33.611Z,100281.84
2022-08-04T15:29:10.989Z,100289.53
2022-08-04T15:32:05.339Z,100307.50
2022-08-04T15:34:43.113Z,100315.34
2022-08-04T15:37:10.823Z,100306.19
2022-08-04T15:40:09.476Z,100291.41
2022-08-04T15:42:43.877Z,100305.81
2022-08-04T15:46:02.048Z,100294.22
2022-08-04T15:48:12.027Z,100302.28
2022-08-04T15:51:02.868Z,100289.09
2022-08-04T15:54:01.361Z,100288.81
2022-08-04T15:56:26.395Z,100276.88
2022-08-04T15:58:57.575Z,100290.34
2022-08-04T16:01:24.814Z,100285.72
2022-08-04T16:03:58.247Z,100282.13
2022-08-04T16:06:29.583Z,100281.28
2022-08-04T16:09:03.852Z,100277.50
2022-08-04T16:11:32.541Z,100281.16
2022-08-04T16:13:59.751Z,100287.56
2022-08-04T16:16:27.818Z,100293.34
2022-08-04T16:18:54.927Z,100297.19
2022-08-04T16:21:24.243Z,100295.25
2022-08-04T16:24:05.812Z,100299.50
2022-08-04T16:26:45.440Z,100301.22
2022-08-04T16:29:38.223Z,100301.88
2022-08-04T16:32:04.766Z,100304.91
2022-08-04T16:34:47.898Z,100299.69
2022-08-04T16:37:19.087Z,100298.44
2022-08-04T16:39:51.304Z,100298.44
2022-08-04T16:42:27.487Z,100287.50
2022-08-04T16:45:09.127Z,100296.44
2022-08-04T16:47:47.519Z,100287.25
2022-08-04T16:50:19.630Z,100295.00
2022-08-04T16:52:51.595Z,100289.44
2022-08-04T16:55:19.959Z,100286.69
2022-08-04T16:57:47.301Z,100287.09
2022-08-04T17:00:14.595Z,100282.31
2022-08-04T17:02:41.567Z,100288.56
2022-08-04T17:05:39.058Z,100280.91
2022-08-04T17:10:55.805Z,100282.28
2022-08-04T17:14:02.531Z,100283.06
2022-08-04T17:16:18.252Z,100276.16
2022-08-04T17:18:48.168Z,100274.13
2022-08-04T17:21:22.631Z,100268.97
2022-08-04T17:24:16.545Z,100265.44
2022-08-04T17:26:45.261Z,100263.22
2022-08-04T17:29:20.051Z,100254.03
2022-08-04T17:31:47.011Z,100249.22
2022-08-04T17:34:19.502Z,100251.09
2022-08-04T17:36:48.073Z,100256.44
2022-08-04T17:39:23.242Z,100251.38
2022-08-04T17:41:56.075Z,100264.41
2022-08-04T17:44:38.431Z,100270.34
2022-08-04T17:47:16.761Z,100267.88
2022-08-04T17:49:52.533Z,100272.13
2022-08-04T17:52:41.432Z,100288.97
2022-08-04T17:55:16.416Z,100282.94
2022-08-04T17:57:52.628Z,100290.09
2022-08-04T18:00:20.050Z,100292.53
2022-08-04T18:02:54.463Z,100297.19
2022-08-04T18:05:50.278Z,100304.31
2022-08-04T18:08:39.659Z,100310.84
2022-08-04T18:11:03.566Z,100310.75
2022-08-04T18:13:31.257Z,100319.53
2022-08-04T18:16:21.745Z,100325.56
2022-08-04T18:19:10.244Z,100336.34
2022-08-04T18:21:46.730Z,100337.47
2022-08-04T18:24:34.773Z,100348.75
2022-08-04T18:27:10.110Z,100333.75
2022-08-04T18:29:41.222Z,100329.47
2022-08-04T18:32:33.003Z,100335.06
2022-08-04T18:35:05.713Z,100340.03
2022-08-04T18:38:05.801Z,100343.34
2022-08-04T18:40:34.311Z,100357.84
2022-08-04T18:43:08.611Z,100370.47
2022-08-04T18:45:41.142Z,100352.91
2022-08-04T18:48:17.912Z,100352.03
2022-08-04T18:51:09.693Z,100340.47
2022-08-04T18:53:35.797Z,100336.25
2022-08-04T18:56:06.098Z,100337.34
2022-08-04T18:58:32.971Z,100347.81
2022-08-04T19:01:01.113Z,100356.63
2022-08-04T19:03:30.786Z,100356.75
2022-08-04T19:06:02.312Z,100355.72
2022-08-04T19:11:53.372Z,100375.72
2022-08-04T19:14:05.095Z,100401.47
2022-08-04T19:16:33.991Z,100407.09
2022-08-04T19:19:05.618Z,100408.63
2022-08-04T19:21:59.958Z,100412.78
2022-08-04T19:27:08.682Z,100420.13
2022-08-04T19:29:41.035Z,100434.63
2022-08-04T19:32:13.875Z,100433.69
2022-08-04T19:34:42.493Z,100432.00
2022-08-04T19:37:20.369Z,100437.31
2022-08-04T19:40:00.672Z,100433.03
2022-08-04T19:42:27.291Z,100445.22
2022-08-04T19:44:53.812Z,100434.84
2022-08-04T19:48:21.732Z,100436.63
2022-08-04T19:52:54.398Z,100439.06
2022-08-04T19:55:37.393Z,100437.00
2022-08-04T19:58:08.511Z,100437.91
2022-08-04T20:00:37.415Z,100440.66
2022-08-04T20:03:11.581Z,100430.94
2022-08-04T20:05:53.127Z,100438.31
2022-08-04T20:08:21.410Z,100428.06
2022-08-04T20:10:51.459Z,100451.81
2022-08-04T20:13:19.814Z,100458.00
2022-08-04T20:18:36.505Z,100466.66
2022-08-04T20:21:36.589Z,100463.84
2022-08-04T20:24:38.909Z,100473.69
2022-08-04T20:26:54.061Z,100466.81
2022-08-04T20:29:40.300Z,100470.59
2022-08-04T20:32:08.778Z,100475.38
2022-08-04T20:34:37.131Z,100469.16
2022-08-04T20:37:03.910Z,100469.75
2022-08-04T20:39:30.770Z,100457.13
2022-08-04T20:41:57.928Z,100461.56
2022-08-04T20:44:24.549Z,100464.63
2022-08-04T20:46:51.114Z,100476.72
2022-08-04T20:49:17.797Z,100479.97
2022-08-04T20:51:44.375Z,100476.34
2022-08-04T20:54:16.885Z,100482.19
2022-08-04T20:56:51.118Z,100488.53
2022-08-04T20:59:18.923Z,100478.69
2022-08-04T21:01:49.024Z,100471.56
2022-08-04T21:04:32.244Z,100476.88
2022-08-04T21:07:07.603Z,100474.75
2022-08-04T21:09:38.337Z,100475.84
2022-08-04T21:12:11.008Z,100482.94
2022-08-04T21:15:01.147Z,100483.66
2022-08-04T21:17:59.523Z,100476.50
2022-08-04T21:20:27.654Z,100474.25
2022-08-04T21:22:54.989Z,100479.16
2022-08-04T21:25:22.195Z,100480.59
2022-08-04T21:27:48.785Z,100468.69
2022-08-04T21:30:23.915Z,100468.22
2022-08-04T21:32:52.071Z,100478.19
2022-08-04T21:35:19.015Z,100479.28
2022-08-04T21:37:58.225Z,100467.28
2022-08-04T21:40:36.763Z,100479.03
2022-08-04T21:43:05.782Z,100495.91
2022-08-04T21:45:36.251Z,100486.72
2022-08-04T21:48:04.748Z,100503.53
2022-08-04T21:50:31.376Z,100505.81
2022-08-04T21:52:58.962Z,100509.53
2022-08-04T21:56:04.366Z,100508.81
2022-08-04T21:58:13.353Z,100507.09
2022-08-04T22:00:40.717Z,100506.50
2022-08-04T22:03:11.335Z,100501.16
2022-08-04T22:05:55.322Z,100501.53
2022-08-04T22:08:23.434Z,100499.66
2022-08-04T22:10:50.286Z,100490.53
2022-08-04T22:13:22.660Z,100500.22
2022-08-04T22:16:03.701Z,100505.22
2022-08-04T22:18:32.382Z,100480.56
2022-08-04T22:21:04.457Z,100482.69
2022-08-04T22:23:44.904Z,100490.41
2022-08-04T22:26:26.897Z,100499.78
2022-08-04T22:28:56.193Z,100506.75
2022-08-04T22:31:24.902Z,100518.66
2022-08-04T22:33:55.298Z,100511.44
2022-08-04T22:36:22.713Z,100517.59
2022-08-04T22:39:00.276Z,100522.41
2022-08-04T22:41:34.220Z,100526.66
2022-08-04T22:44:15.938Z,100530.91
2022-08-04T22:46:43.068Z,100537.88
2022-08-04T22:49:09.624Z,100528.56
2022-08-04T22:51:36.188Z,100522.50
2022-08-04T22:54:02.754Z,100521.13
2022-08-04T22:56:39.282Z,100526.06
2022-08-04T22:59:10.841Z,100537.34
2022-08-04T23:02:00.121Z,100536.81
2022-08-04T23:04:25.633Z,100533.09
2022-08-04T23:06:54.715Z,100518.50
2022-08-04T23:09:26.973Z,100519.34
2022-08-04T23:12:24.387Z,100520.22
2022-08-04T23:14:54.985Z,100522.56
2022-08-04T23:17:22.308Z,100517.50
2022-08-04T23:19:58.072Z,100517.19
2022-08-04T23:22:36.929Z,100517.41
2022-08-04T23:25:04.628Z,100520.78
2022-08-04T23:27:40.246Z,100511.53
2022-08-04T23:30:11.247Z,100508.03
2022-08-04T23:32:38.119Z,100500.94
2022-08-04T23:35:05.108Z,100498.03
2022-08-04T23:37:36.688Z,100507.63
2022-08-04T23:40:32.763Z,100507.78
2022-08-04T23:43:00.824Z,100506.44
2022-08-04T23:46:04.229Z,100520.22
2022-08-04T23:48:19.405Z,100512.84
2022-08-04T23:50:47.798Z,100508.38
2022-08-04T23:53:18.461Z,100518.84
2022-08-04T23:55:49.176Z,100517.56
2022-08-04T23:58:18.778Z,100517.97
